sensor_id;sensor_type;location;lat;lon;timestamp;P1;durP1;ratioP1;P2;durP2;ratioP2
55815;SDS011;41744;52.404;16.942;2022-12-13T00:01:49;8.30;;;3.70;;
55815;SDS011;41744;52.404;16.942;2022-12-13T00:04:16;8.03;;;4.00;;
55815;SDS011;41744;52.404;16.942;2022-12-13T00:06:42;12.33;;;4.07;;
55815;SDS011;41744;52.404;16.942;2022-12-13T00:09:09;8.63;;;4.27;;
55815;SDS011;41744;52.404;16.942;2022-12-13T00:11:36;8.60;;;4.13;;
55815;SDS011;41744;52.404;16.942;2022-12-13T00:14:02;9.03;;;4.17;;
55815;SDS011;41744;52.404;16.942;2022-12-13T00:16:28;11.23;;;4.20;;
55815;SDS011;41744;52.404;16.942;2022-12-13T00:18:55;8.80;;;3.97;;
55815;SDS011;41744;52.404;16.942;2022-12-13T00:21:23;9.03;;;4.17;;
55815;SDS011;41744;52.404;16.942;2022-12-13T00:23:49;9.53;;;4.30;;
55815;SDS011;41744;52.404;16.942;2022-12-13T00:26:16;12.63;;;4.53;;
55815;SDS011;41744;52.404;16.942;2022-12-13T00:28:43;10.63;;;4.57;;
55815;SDS011;41744;52.404;16.942;2022-12-13T00:31:12;10.37;;;3.97;;
55815;SDS011;41744;52.404;16.942;2022-12-13T00:33:37;8.57;;;3.90;;
55815;SDS011;41744;52.404;16.942;2022-12-13T00:36:04;8.37;;;3.87;;
55815;SDS011;41744;52.404;16.942;2022-12-13T00:38:31;8.43;;;3.97;;
55815;SDS011;41744;52.404;16.942;2022-12-13T00:40:57;9.27;;;3.97;;
55815;SDS011;41744;52.404;16.942;2022-12-13T00:43:23;8.43;;;3.90;;
55815;SDS011;41744;52.404;16.942;2022-12-13T00:45:49;8.27;;;4.00;;
55815;SDS011;41744;52.404;16.942;2022-12-13T00:48:15;6.43;;;3.23;;
55815;SDS011;41744;52.404;16.942;2022-12-13T00:50:41;10.07;;;3.57;;
55815;SDS011;41744;52.404;16.942;2022-12-13T00:53:08;7.77;;;3.43;;
55815;SDS011;41744;52.404;16.942;2022-12-13T00:55:38;8.80;;;3.30;;
55815;SDS011;41744;52.404;16.942;2022-12-13T00:58:05;8.70;;;3.70;;
55815;SDS011;41744;52.404;16.942;2022-12-13T01:00:31;8.40;;;3.70;;
55815;SDS011;41744;52.404;16.942;2022-12-13T01:02:57;9.60;;;3.07;;
55815;SDS011;41744;52.404;16.942;2022-12-13T01:05:23;7.87;;;3.43;;
55815;SDS011;41744;52.404;16.942;2022-12-13T01:07:49;9.83;;;3.20;;
55815;SDS011;41744;52.404;16.942;2022-12-13T01:10:15;7.00;;;3.40;;
55815;SDS011;41744;52.404;16.942;2022-12-13T01:12:40;7.13;;;3.33;;
55815;SDS011;41744;52.404;16.942;2022-12-13T01:15:07;6.73;;;3.27;;
55815;SDS011;41744;52.404;16.942;2022-12-13T01:17:33;7.33;;;3.57;;
55815;SDS011;41744;52.404;16.942;2022-12-13T01:20:00;8.93;;;3.73;;
55815;SDS011;41744;52.404;16.942;2022-12-13T01:22:26;11.73;;;3.30;;
55815;SDS011;41744;52.404;16.942;2022-12-13T01:24:52;4.90;;;2.73;;
55815;SDS011;41744;52.404;16.942;2022-12-13T01:27:18;8.33;;;3.67;;
55815;SDS011;41744;52.404;16.942;2022-12-13T01:29:44;7.00;;;3.00;;
55815;SDS011;41744;52.404;16.942;2022-12-13T01:32:09;6.47;;;3.50;;
55815;SDS011;41744;52.404;16.942;2022-12-13T01:34:36;7.10;;;3.37;;
55815;SDS011;41744;52.404;16.942;2022-12-13T01:37:01;7.43;;;3.00;;
55815;SDS011;41744;52.404;16.942;2022-12-13T01:39:27;8.00;;;3.37;;
55815;SDS011;41744;52.404;16.942;2022-12-13T01:41:54;8.20;;;3.53;;
55815;SDS011;41744;52.404;16.942;2022-12-13T01:47:08;7.10;;;3.10;;
55815;SDS011;41744;52.404;16.942;2022-12-13T01:49:34;6.17;;;3.43;;
55815;SDS011;41744;52.404;16.942;2022-12-13T01:52:02;9.93;;;3.40;;
55815;SDS011;41744;52.404;16.942;2022-12-13T01:54:31;7.43;;;2.97;;
55815;SDS011;41744;52.404;16.942;2022-12-13T01:56:58;6.13;;;3.10;;
55815;SDS011;41744;52.404;16.942;2022-12-13T01:59:25;7.20;;;3.40;;
55815;SDS011;41744;52.404;16.942;2022-12-13T02:01:52;6.50;;;3.00;;
55815;SDS011;41744;52.404;16.942;2022-12-13T02:04:19;6.80;;;2.67;;
55815;SDS011;41744;52.404;16.942;2022-12-13T02:06:45;8.40;;;3.30;;
55815;SDS011;41744;52.404;16.942;2022-12-13T02:09:12;4.83;;;2.50;;
55815;SDS011;41744;52.404;16.942;2022-12-13T02:11:40;5.80;;;2.97;;
55815;SDS011;41744;52.404;16.942;2022-12-13T02:14:06;5.50;;;2.93;;
55815;SDS011;41744;52.404;16.942;2022-12-13T02:21:31;7.80;;;3.00;;
55815;SDS011;41744;52.404;16.942;2022-12-13T02:24:17;6.73;;;3.03;;
55815;SDS011;41744;52.404;16.942;2022-12-13T02:26:53;7.47;;;3.20;;
55815;SDS011;41744;52.404;16.942;2022-12-13T02:31:51;4.10;;;2.93;;
55815;SDS011;41744;52.404;16.942;2022-12-13T02:34:26;6.00;;;3.03;;
55815;SDS011;41744;52.404;16.942;2022-12-13T02:37:07;8.63;;;2.87;;
55815;SDS011;41744;52.404;16.942;2022-12-13T02:39:38;6.10;;;3.00;;
55815;SDS011;41744;52.404;16.942;2022-12-13T02:42:42;6.00;;;2.90;;
55815;SDS011;41744;52.404;16.942;2022-12-13T02:45:03;5.13;;;2.73;;
55815;SDS011;41744;52.404;16.942;2022-12-13T02:47:30;6.20;;;2.63;;
55815;SDS011;41744;52.404;16.942;2022-12-13T02:49:58;6.87;;;2.80;;
55815;SDS011;41744;52.404;16.942;2022-12-13T02:52:25;5.43;;;2.70;;
55815;SDS011;41744;52.404;16.942;2022-12-13T02:54:53;5.67;;;2.93;;
55815;SDS011;41744;52.404;16.942;2022-12-13T02:57:32;6.90;;;3.10;;
55815;SDS011;41744;52.404;16.942;2022-12-13T03:00:00;4.90;;;2.50;;
55815;SDS011;41744;52.404;16.942;2022-12-13T03:07:56;5.33;;;2.60;;
55815;SDS011;41744;52.404;16.942;2022-12-13T03:10:28;5.07;;;2.47;;
55815;SDS011;41744;52.404;16.942;2022-12-13T03:13:07;6.90;;;3.03;;
55815;SDS011;41744;52.404;16.942;2022-12-13T03:15:55;6.40;;;2.93;;
55815;SDS011;41744;52.404;16.942;2022-12-13T03:18:22;5.47;;;3.13;;
55815;SDS011;41744;52.404;16.942;2022-12-13T03:20:58;5.63;;;2.73;;
55815;SDS011;41744;52.404;16.942;2022-12-13T03:23:24;6.43;;;2.60;;
55815;SDS011;41744;52.404;16.942;2022-12-13T03:25:52;5.13;;;2.93;;
55815;SDS011;41744;52.404;16.942;2022-12-13T03:28:19;9.13;;;3.13;;
55815;SDS011;41744;52.404;16.942;2022-12-13T03:30:45;5.97;;;2.50;;
55815;SDS011;41744;52.404;16.942;2022-12-13T03:33:11;5.00;;;2.77;;
55815;SDS011;41744;52.404;16.942;2022-12-13T03:35:38;5.03;;;2.53;;
55815;SDS011;41744;52.404;16.942;2022-12-13T03:38:04;4.47;;;2.67;;
55815;SDS011;41744;52.404;16.942;2022-12-13T03:40:30;4.00;;;2.50;;
55815;SDS011;41744;52.404;16.942;2022-12-13T03:42:57;6.00;;;2.90;;
55815;SDS011;41744;52.404;16.942;2022-12-13T03:45:23;6.13;;;2.80;;
55815;SDS011;41744;52.404;16.942;2022-12-13T03:47:49;4.00;;;2.30;;
55815;SDS011;41744;52.404;16.942;2022-12-13T03:50:15;6.03;;;3.10;;
55815;SDS011;41744;52.404;16.942;2022-12-13T03:52:41;5.10;;;2.73;;
55815;SDS011;41744;52.404;16.942;2022-12-13T03:55:08;5.10;;;2.73;;
55815;SDS011;41744;52.404;16.942;2022-12-13T03:57:34;5.73;;;2.97;;
55815;SDS011;41744;52.404;16.942;2022-12-13T04:00:01;3.87;;;2.10;;
55815;SDS011;41744;52.404;16.942;2022-12-13T04:02:27;6.77;;;2.63;;
55815;SDS011;41744;52.404;16.942;2022-12-13T04:04:53;4.67;;;2.43;;
55815;SDS011;41744;52.404;16.942;2022-12-13T04:07:19;5.10;;;2.53;;
55815;SDS011;41744;52.404;16.942;2022-12-13T04:09:45;6.70;;;2.80;;
55815;SDS011;41744;52.404;16.942;2022-12-13T04:12:11;5.83;;;3.00;;
55815;SDS011;41744;52.404;16.942;2022-12-13T04:14:55;5.83;;;2.60;;
55815;SDS011;41744;52.404;16.942;2022-12-13T04:17:21;5.20;;;2.57;;
55815;SDS011;41744;52.404;16.942;2022-12-13T04:19:47;4.37;;;2.27;;
55815;SDS011;41744;52.404;16.942;2022-12-13T04:22:13;8.60;;;2.90;;
55815;SDS011;41744;52.404;16.942;2022-12-13T04:24:39;5.63;;;2.60;;
55815;SDS011;41744;52.404;16.942;2022-12-13T04:27:05;5.87;;;3.10;;
55815;SDS011;41744;52.404;16.942;2022-12-13T04:29:31;5.93;;;2.90;;
55815;SDS011;41744;52.404;16.942;2022-12-13T04:31:57;7.00;;;2.57;;
55815;SDS011;41744;52.404;16.942;2022-12-13T04:34:23;6.77;;;3.07;;
55815;SDS011;41744;52.404;16.942;2022-12-13T04:36:49;5.57;;;2.93;;
55815;SDS011;41744;52.404;16.942;2022-12-13T04:39:15;5.63;;;3.00;;
55815;SDS011;41744;52.404;16.942;2022-12-13T04:41:41;7.47;;;2.90;;
55815;SDS011;41744;52.404;16.942;2022-12-13T04:44:08;6.73;;;3.00;;
55815;SDS011;41744;52.404;16.942;2022-12-13T04:46:35;6.57;;;2.93;;
55815;SDS011;41744;52.404;16.942;2022-12-13T04:49:00;5.93;;;2.73;;
55815;SDS011;41744;52.404;16.942;2022-12-13T04:51:26;7.13;;;2.90;;
55815;SDS011;41744;52.404;16.942;2022-12-13T04:53:53;4.73;;;2.40;;
55815;SDS011;41744;52.404;16.942;2022-12-13T04:56:19;5.70;;;2.80;;
55815;SDS011;41744;52.404;16.942;2022-12-13T04:58:45;6.13;;;2.90;;
55815;SDS011;41744;52.404;16.942;2022-12-13T05:01:11;6.20;;;2.93;;
55815;SDS011;41744;52.404;16.942;2022-12-13T05:03:37;5.97;;;2.70;;
55815;SDS011;41744;52.404;16.942;2022-12-13T05:06:04;5.70;;;2.93;;
55815;SDS011;41744;52.404;16.942;2022-12-13T05:08:30;5.07;;;2.67;;
55815;SDS011;41744;52.404;16.942;2022-12-13T05:10:56;5.97;;;3.10;;
55815;SDS011;41744;52.404;16.942;2022-12-13T05:13:22;7.57;;;3.47;;
55815;SDS011;41744;52.404;16.942;2022-12-13T05:15:55;6.13;;;2.63;;
55815;SDS011;41744;52.404;16.942;2022-12-13T05:18:21;7.03;;;2.77;;
55815;SDS011;41744;52.404;16.942;2022-12-13T05:20:47;5.73;;;2.83;;
55815;SDS011;41744;52.404;16.942;2022-12-13T05:23:15;8.17;;;3.17;;
55815;SDS011;41744;52.404;16.942;2022-12-13T05:25:41;6.70;;;3.10;;
55815;SDS011;41744;52.404;16.942;2022-12-13T05:28:07;7.43;;;3.20;;
55815;SDS011;41744;52.404;16.942;2022-12-13T05:30:32;10.00;;;3.57;;
55815;SDS011;41744;52.404;16.942;2022-12-13T05:32:58;7.67;;;2.97;;
55815;SDS011;41744;52.404;16.942;2022-12-13T05:35:24;5.70;;;3.10;;
55815;SDS011;41744;52.404;16.942;2022-12-13T05:37:51;5.77;;;3.03;;
55815;SDS011;41744;52.404;16.942;2022-12-13T05:40:17;5.47;;;2.77;;
55815;SDS011;41744;52.404;16.942;2022-12-13T05:42:43;7.83;;;3.10;;
55815;SDS011;41744;52.404;16.942;2022-12-13T05:45:15;5.93;;;3.20;;
55815;SDS011;41744;52.404;16.942;2022-12-13T05:47:41;11.10;;;3.47;;
55815;SDS011;41744;52.404;16.942;2022-12-13T05:50:07;8.20;;;3.27;;
55815;SDS011;41744;52.404;16.942;2022-12-13T05:52:34;7.17;;;2.93;;
55815;SDS011;41744;52.404;16.942;2022-12-13T05:55:01;6.67;;;3.20;;
55815;SDS011;41744;52.404;16.942;2022-12-13T05:57:27;7.07;;;3.27;;
55815;SDS011;41744;52.404;16.942;2022-12-13T05:59:53;6.37;;;3.07;;
55815;SDS011;41744;52.404;16.942;2022-12-13T06:02:19;6.67;;;3.23;;
55815;SDS011;41744;52.404;16.942;2022-12-13T06:04:45;6.23;;;3.13;;
55815;SDS011;41744;52.404;16.942;2022-12-13T06:07:11;8.27;;;3.23;;
55815;SDS011;41744;52.404;16.942;2022-12-13T06:09:38;8.87;;;3.23;;
55815;SDS011;41744;52.404;16.942;2022-12-13T06:12:04;10.83;;;3.80;;
55815;SDS011;41744;52.404;16.942;2022-12-13T06:14:30;6.40;;;3.67;;
55815;SDS011;41744;52.404;16.942;2022-12-13T06:16:56;6.77;;;3.20;;
55815;SDS011;41744;52.404;16.942;2022-12-13T06:19:22;8.23;;;3.67;;
55815;SDS011;41744;52.404;16.942;2022-12-13T06:21:48;5.67;;;3.07;;
55815;SDS011;41744;52.404;16.942;2022-12-13T06:24:15;8.47;;;3.70;;
55815;SDS011;41744;52.404;16.942;2022-12-13T06:26:41;45.20;;;16.53;;
55815;SDS011;41744;52.404;16.942;2022-12-13T06:29:08;164.17;;;30.07;;
55815;SDS011;41744;52.404;16.942;2022-12-13T06:31:34;58.47;;;15.70;;
55815;SDS011;41744;52.404;16.942;2022-12-13T06:34:03;16.47;;;5.83;;
55815;SDS011;41744;52.404;16.942;2022-12-13T06:36:29;14.10;;;5.63;;
55815;SDS011;41744;52.404;16.942;2022-12-13T06:38:55;8.67;;;3.60;;
55815;SDS011;41744;52.404;16.942;2022-12-13T06:41:21;12.43;;;3.43;;
55815;SDS011;41744;52.404;16.942;2022-12-13T06:43:47;6.77;;;3.23;;
55815;SDS011;41744;52.404;16.942;2022-12-13T06:46:13;8.07;;;3.37;;
55815;SDS011;41744;52.404;16.942;2022-12-13T06:48:40;6.67;;;2.73;;
55815;SDS011;41744;52.404;16.942;2022-12-13T06:51:06;7.47;;;3.13;;
55815;SDS011;41744;52.404;16.942;2022-12-13T06:53:34;6.50;;;3.33;;
55815;SDS011;41744;52.404;16.942;2022-12-13T06:56:03;8.93;;;4.40;;
55815;SDS011;41744;52.404;16.942;2022-12-13T06:58:30;7.47;;;3.43;;
55815;SDS011;41744;52.404;16.942;2022-12-13T07:01:00;8.73;;;3.37;;
55815;SDS011;41744;52.404;16.942;2022-12-13T07:03:26;10.53;;;3.63;;
55815;SDS011;41744;52.404;16.942;2022-12-13T07:05:53;10.03;;;3.60;;
55815;SDS011;41744;52.404;16.942;2022-12-13T07:08:19;6.53;;;3.00;;
55815;SDS011;41744;52.404;16.942;2022-12-13T07:10:45;7.60;;;3.60;;
55815;SDS011;41744;52.404;16.942;2022-12-13T07:13:11;6.50;;;3.40;;
55815;SDS011;41744;52.404;16.942;2022-12-13T07:15:37;7.03;;;3.33;;
55815;SDS011;41744;52.404;16.942;2022-12-13T07:18:03;10.87;;;3.60;;
55815;SDS011;41744;52.404;16.942;2022-12-13T07:20:29;7.13;;;3.70;;
55815;SDS011;41744;52.404;16.942;2022-12-13T07:22:55;6.67;;;3.47;;
55815;SDS011;41744;52.404;16.942;2022-12-13T07:25:21;5.33;;;2.90;;
55815;SDS011;41744;52.404;16.942;2022-12-13T07:27:47;6.20;;;2.93;;
55815;SDS011;41744;52.404;16.942;2022-12-13T07:30:13;6.00;;;3.03;;
55815;SDS011;41744;52.404;16.942;2022-12-13T07:32:39;8.03;;;3.20;;
55815;SDS011;41744;52.404;16.942;2022-12-13T07:35:05;6.63;;;2.80;;
55815;SDS011;41744;52.404;16.942;2022-12-13T07:37:31;6.10;;;3.07;;
55815;SDS011;41744;52.404;16.942;2022-12-13T07:39:58;7.10;;;3.10;;
55815;SDS011;41744;52.404;16.942;2022-12-13T07:42:24;7.13;;;3.27;;
55815;SDS011;41744;52.404;16.942;2022-12-13T07:44:50;5.63;;;2.83;;
55815;SDS011;41744;52.404;16.942;2022-12-13T07:47:16;5.60;;;3.13;;
55815;SDS011;41744;52.404;16.942;2022-12-13T07:49:41;6.53;;;3.13;;
55815;SDS011;41744;52.404;16.942;2022-12-13T07:52:11;9.17;;;3.00;;
55815;SDS011;41744;52.404;16.942;2022-12-13T07:54:37;6.40;;;3.23;;
55815;SDS011;41744;52.404;16.942;2022-12-13T07:57:03;6.47;;;3.17;;
55815;SDS011;41744;52.404;16.942;2022-12-13T07:59:29;9.17;;;3.00;;
55815;SDS011;41744;52.404;16.942;2022-12-13T08:01:55;13.80;;;3.07;;
55815;SDS011;41744;52.404;16.942;2022-12-13T08:04:21;6.57;;;3.03;;
55815;SDS011;41744;52.404;16.942;2022-12-13T08:06:47;6.57;;;2.73;;
55815;SDS011;41744;52.404;16.942;2022-12-13T08:09:13;8.00;;;3.23;;
55815;SDS011;41744;52.404;16.942;2022-12-13T08:11:38;11.90;;;3.17;;
55815;SDS011;41744;52.404;16.942;2022-12-13T08:14:04;4.77;;;2.47;;
55815;SDS011;41744;52.404;16.942;2022-12-13T08:16:31;6.53;;;3.00;;
55815;SDS011;41744;52.404;16.942;2022-12-13T08:18:57;8.23;;;3.33;;
55815;SDS011;41744;52.404;16.942;2022-12-13T08:21:23;6.97;;;2.93;;
55815;SDS011;41744;52.404;16.942;2022-12-13T08:23:49;8.90;;;3.10;;
55815;SDS011;41744;52.404;16.942;2022-12-13T08:26:15;7.37;;;2.90;;
55815;SDS011;41744;52.404;16.942;2022-12-13T08:28:41;5.37;;;2.70;;
55815;SDS011;41744;52.404;16.942;2022-12-13T08:31:08;3.87;;;2.33;;
55815;SDS011;41744;52.404;16.942;2022-12-13T08:33:38;6.07;;;2.70;;
55815;SDS011;41744;52.404;16.942;2022-12-13T08:36:07;6.53;;;2.80;;
55815;SDS011;41744;52.404;16.942;2022-12-13T08:38:33;4.60;;;2.33;;
55815;SDS011;41744;52.404;16.942;2022-12-13T08:40:59;11.90;;;3.37;;
55815;SDS011;41744;52.404;16.942;2022-12-13T08:43:25;8.57;;;2.90;;
55815;SDS011;41744;52.404;16.942;2022-12-13T08:45:51;6.83;;;2.37;;
55815;SDS011;41744;52.404;16.942;2022-12-13T08:48:17;4.97;;;2.60;;
55815;SDS011;41744;52.404;16.942;2022-12-13T08:50:43;8.93;;;3.70;;
55815;SDS011;41744;52.404;16.942;2022-12-13T08:53:08;7.07;;;3.40;;
55815;SDS011;41744;52.404;16.942;2022-12-13T08:55:35;10.37;;;3.90;;
55815;SDS011;41744;52.404;16.942;2022-12-13T08:58:02;7.87;;;3.47;;
55815;SDS011;41744;52.404;16.942;2022-12-13T09:00:32;7.53;;;3.23;;
55815;SDS011;41744;52.404;16.942;2022-12-13T09:02:58;16.63;;;5.60;;
55815;SDS011;41744;52.404;16.942;2022-12-13T09:05:24;17.17;;;5.83;;
55815;SDS011;41744;52.404;16.942;2022-12-13T09:07:53;12.93;;;4.73;;
55815;SDS011;41744;52.404;16.942;2022-12-13T09:10:19;8.37;;;3.17;;
55815;SDS011;41744;52.404;16.942;2022-12-13T09:12:45;9.30;;;3.87;;
55815;SDS011;41744;52.404;16.942;2022-12-13T09:15:11;7.87;;;3.80;;
55815;SDS011;41744;52.404;16.942;2022-12-13T09:17:37;8.90;;;3.60;;
55815;SDS011;41744;52.404;16.942;2022-12-13T09:20:05;20.63;;;6.97;;
55815;SDS011;41744;52.404;16.942;2022-12-13T09:22:31;33.03;;;11.40;;
55815;SDS011;41744;52.404;16.942;2022-12-13T09:24:57;16.90;;;6.00;;
55815;SDS011;41744;52.404;16.942;2022-12-13T09:27:23;17.57;;;3.47;;
55815;SDS011;41744;52.404;16.942;2022-12-13T09:29:49;6.20;;;3.33;;
55815;SDS011;41744;52.404;16.942;2022-12-13T09:32:15;8.97;;;2.97;;
55815;SDS011;41744;52.404;16.942;2022-12-13T09:34:41;7.20;;;3.13;;
55815;SDS011;41744;52.404;16.942;2022-12-13T09:37:07;7.30;;;3.20;;
55815;SDS011;41744;52.404;16.942;2022-12-13T09:39:35;6.57;;;3.23;;
55815;SDS011;41744;52.404;16.942;2022-12-13T09:42:02;9.37;;;3.17;;
55815;SDS011;41744;52.404;16.942;2022-12-13T09:44:29;17.53;;;3.67;;
55815;SDS011;41744;52.404;16.942;2022-12-13T09:46:55;9.37;;;3.30;;
55815;SDS011;41744;52.404;16.942;2022-12-13T09:51:53;7.10;;;3.30;;
55815;SDS011;41744;52.404;16.942;2022-12-13T09:54:20;6.10;;;3.13;;
55815;SDS011;41744;52.404;16.942;2022-12-13T09:56:47;7.17;;;3.10;;
55815;SDS011;41744;52.404;16.942;2022-12-13T09:59:14;7.13;;;3.80;;
55815;SDS011;41744;52.404;16.942;2022-12-13T10:01:41;6.23;;;3.03;;
55815;SDS011;41744;52.404;16.942;2022-12-13T10:04:08;6.23;;;3.10;;
55815;SDS011;41744;52.404;16.942;2022-12-13T10:06:36;7.63;;;3.40;;
55815;SDS011;41744;52.404;16.942;2022-12-13T10:09:02;16.23;;;5.93;;
55815;SDS011;41744;52.404;16.942;2022-12-13T10:11:31;11.83;;;4.60;;
55815;SDS011;41744;52.404;16.942;2022-12-13T10:14:05;5.07;;;2.70;;
55815;SDS011;41744;52.404;16.942;2022-12-13T10:19:00;9.40;;;2.87;;
55815;SDS011;41744;52.404;16.942;2022-12-13T10:21:27;9.33;;;4.10;;
55815;SDS011;41744;52.404;16.942;2022-12-13T10:23:55;13.67;;;4.30;;
55815;SDS011;41744;52.404;16.942;2022-12-13T10:26:26;6.63;;;3.60;;
55815;SDS011;41744;52.404;16.942;2022-12-13T10:29:00;9.77;;;4.33;;
55815;SDS011;41744;52.404;16.942;2022-12-13T10:31:27;13.50;;;5.43;;
55815;SDS011;41744;52.404;16.942;2022-12-13T10:33:54;17.63;;;5.43;;
55815;SDS011;41744;52.404;16.942;2022-12-13T10:48:26;6.63;;;3.03;;
55815;SDS011;41744;52.404;16.942;2022-12-13T10:50:59;9.80;;;4.67;;
55815;SDS011;41744;52.404;16.942;2022-12-13T10:53:27;10.10;;;4.40;;
55815;SDS011;41744;52.404;16.942;2022-12-13T10:55:54;10.97;;;5.13;;
55815;SDS011;41744;52.404;16.942;2022-12-13T10:58:21;10.77;;;5.03;;
55815;SDS011;41744;52.404;16.942;2022-12-13T11:00:47;8.07;;;4.00;;
55815;SDS011;41744;52.404;16.942;2022-12-13T11:03:30;7.13;;;3.40;;
55815;SDS011;41744;52.404;16.942;2022-12-13T11:08:28;10.03;;;3.90;;
55815;SDS011;41744;52.404;16.942;2022-12-13T11:10:55;7.63;;;3.57;;
55815;SDS011;41744;52.404;16.942;2022-12-13T11:13:23;11.97;;;4.13;;
55815;SDS011;41744;52.404;16.942;2022-12-13T11:15:52;13.90;;;5.60;;
55815;SDS011;41744;52.404;16.942;2022-12-13T11:18:19;8.83;;;4.50;;
55815;SDS011;41744;52.404;16.942;2022-12-13T11:20:56;11.53;;;4.70;;
55815;SDS011;41744;52.404;16.942;2022-12-13T11:25:54;11.13;;;4.70;;
55815;SDS011;41744;52.404;16.942;2022-12-13T11:31:22;7.23;;;3.50;;
55815;SDS011;41744;52.404;16.942;2022-12-13T11:39:13;8.37;;;3.60;;
55815;SDS011;41744;52.404;16.942;2022-12-13T11:41:43;10.40;;;3.97;;
55815;SDS011;41744;52.404;16.942;2022-12-13T11:44:17;12.47;;;4.33;;
55815;SDS011;41744;52.404;16.942;2022-12-13T11:46:45;17.87;;;5.00;;
55815;SDS011;41744;52.404;16.942;2022-12-13T11:49:58;9.77;;;4.60;;
55815;SDS011;41744;52.404;16.942;2022-12-13T11:52:00;8.77;;;4.17;;
55815;SDS011;41744;52.404;16.942;2022-12-13T11:54:34;15.10;;;4.20;;
55815;SDS011;41744;52.404;16.942;2022-12-13T11:57:02;13.07;;;5.13;;
55815;SDS011;41744;52.404;16.942;2022-12-13T11:59:33;12.43;;;4.60;;
55815;SDS011;41744;52.404;16.942;2022-12-13T12:02:05;20.73;;;6.03;;
55815;SDS011;41744;52.404;16.942;2022-12-13T12:04:45;16.23;;;5.63;;
55815;SDS011;41744;52.404;16.942;2022-12-13T12:07:16;10.50;;;4.30;;
55815;SDS011;41744;52.404;16.942;2022-12-13T12:09:53;12.63;;;5.23;;
55815;SDS011;41744;52.404;16.942;2022-12-13T12:12:23;15.53;;;5.03;;
55815;SDS011;41744;52.404;16.942;2022-12-13T12:15:02;18.10;;;5.57;;
55815;SDS011;41744;52.404;16.942;2022-12-13T12:17:30;14.80;;;6.30;;
55815;SDS011;41744;52.404;16.942;2022-12-13T12:19:56;13.77;;;5.27;;
55815;SDS011;41744;52.404;16.942;2022-12-13T12:30:09;29.50;;;7.40;;
55815;SDS011;41744;52.404;16.942;2022-12-13T12:32:51;22.67;;;7.60;;
55815;SDS011;41744;52.404;16.942;2022-12-13T12:35:33;20.07;;;7.70;;
55815;SDS011;41744;52.404;16.942;2022-12-13T12:43:37;14.17;;;5.00;;
55815;SDS011;41744;52.404;16.942;2022-12-13T12:54:30;36.20;;;8.67;;
55815;SDS011;41744;52.404;16.942;2022-12-13T12:57:08;19.97;;;7.57;;
55815;SDS011;41744;52.404;16.942;2022-12-13T12:59:41;16.63;;;6.40;;
55815;SDS011;41744;52.404;16.942;2022-12-13T13:04:40;14.67;;;5.50;;
55815;SDS011;41744;52.404;16.942;2022-12-13T13:07:19;21.00;;;6.07;;
55815;SDS011;41744;52.404;16.942;2022-12-13T13:09:46;17.10;;;5.00;;
55815;SDS011;41744;52.404;16.942;2022-12-13T13:12:13;11.73;;;4.57;;
55815;SDS011;41744;52.404;16.942;2022-12-13T13:14:39;18.37;;;5.50;;
55815;SDS011;41744;52.404;16.942;2022-12-13T13:22:24;13.70;;;5.47;;
55815;SDS011;41744;52.404;16.942;2022-12-13T13:24:58;25.50;;;5.83;;
55815;SDS011;41744;52.404;16.942;2022-12-13T13:27:28;14.40;;;5.67;;
55815;SDS011;41744;52.404;16.942;2022-12-13T13:32:52;20.23;;;6.13;;
55815;SDS011;41744;52.404;16.942;2022-12-13T13:37:53;43.30;;;14.57;;
55815;SDS011;41744;52.404;16.942;2022-12-13T13:40:26;132.70;;;37.97;;
55815;SDS011;41744;52.404;16.942;2022-12-13T13:43:14;22.17;;;7.70;;
55815;SDS011;41744;52.404;16.942;2022-12-13T13:56:33;12.23;;;5.23;;
55815;SDS011;41744;52.404;16.942;2022-12-13T13:59:09;14.33;;;5.30;;
55815;SDS011;41744;52.404;16.942;2022-12-13T14:01:59;15.97;;;6.40;;
55815;SDS011;41744;52.404;16.942;2022-12-13T14:27:52;15.67;;;5.80;;
55815;SDS011;41744;52.404;16.942;2022-12-13T14:30:23;12.63;;;5.20;;
55815;SDS011;41744;52.404;16.942;2022-12-13T14:32:49;19.27;;;5.20;;
55815;SDS011;41744;52.404;16.942;2022-12-13T14:35:23;12.90;;;5.33;;
55815;SDS011;41744;52.404;16.942;2022-12-13T14:43:24;19.77;;;5.67;;
55815;SDS011;41744;52.404;16.942;2022-12-13T14:45:57;16.43;;;6.47;;
55815;SDS011;41744;52.404;16.942;2022-12-13T14:48:23;14.10;;;5.77;;
55815;SDS011;41744;52.404;16.942;2022-12-13T14:50:50;17.10;;;5.60;;
55815;SDS011;41744;52.404;16.942;2022-12-13T14:53:24;16.43;;;6.00;;
55815;SDS011;41744;52.404;16.942;2022-12-13T14:56:03;17.90;;;5.93;;
55815;SDS011;41744;52.404;16.942;2022-12-13T14:58:30;13.43;;;5.10;;
55815;SDS011;41744;52.404;16.942;2022-12-13T15:00:56;13.27;;;4.80;;
55815;SDS011;41744;52.404;16.942;2022-12-13T15:03:24;15.60;;;5.43;;
55815;SDS011;41744;52.404;16.942;2022-12-13T15:05:51;15.47;;;5.40;;
55815;SDS011;41744;52.404;16.942;2022-12-13T15:08:18;14.20;;;5.20;;
55815;SDS011;41744;52.404;16.942;2022-12-13T15:10:45;16.13;;;5.23;;
55815;SDS011;41744;52.404;16.942;2022-12-13T15:15:49;13.70;;;5.07;;
55815;SDS011;41744;52.404;16.942;2022-12-13T15:18:17;12.93;;;5.03;;
55815;SDS011;41744;52.404;16.942;2022-12-13T15:20:44;13.27;;;5.10;;
55815;SDS011;41744;52.404;16.942;2022-12-13T15:25:46;15.60;;;6.03;;
55815;SDS011;41744;52.404;16.942;2022-12-13T15:28:13;23.07;;;8.03;;
55815;SDS011;41744;52.404;16.942;2022-12-13T15:30:39;20.13;;;6.93;;
55815;SDS011;41744;52.404;16.942;2022-12-13T15:35:41;21.93;;;6.43;;
55815;SDS011;41744;52.404;16.942;2022-12-13T15:38:17;27.83;;;9.37;;
55815;SDS011;41744;52.404;16.942;2022-12-13T15:40:44;23.63;;;8.63;;
55815;SDS011;41744;52.404;16.942;2022-12-13T15:43:14;24.43;;;7.23;;
55815;SDS011;41744;52.404;16.942;2022-12-13T15:45:42;23.77;;;8.87;;
55815;SDS011;41744;52.404;16.942;2022-12-13T15:48:26;20.50;;;7.03;;
55815;SDS011;41744;52.404;16.942;2022-12-13T15:51:12;23.30;;;7.00;;
55815;SDS011;41744;52.404;16.942;2022-12-13T15:53:39;14.27;;;5.83;;
55815;SDS011;41744;52.404;16.942;2022-12-13T15:58:53;14.43;;;5.70;;
55815;SDS011;41744;52.404;16.942;2022-12-13T16:01:35;17.77;;;5.73;;
55815;SDS011;41744;52.404;16.942;2022-12-13T16:04:01;18.03;;;6.07;;
55815;SDS011;41744;52.404;16.942;2022-12-13T16:06:28;20.30;;;6.97;;
55815;SDS011;41744;52.404;16.942;2022-12-13T16:08:56;23.53;;;8.03;;
55815;SDS011;41744;52.404;16.942;2022-12-13T16:11:26;29.43;;;9.33;;
55815;SDS011;41744;52.404;16.942;2022-12-13T16:13:53;35.27;;;12.50;;
55815;SDS011;41744;52.404;16.942;2022-12-13T16:18:52;23.40;;;8.60;;
55815;SDS011;41744;52.404;16.942;2022-12-13T16:21:18;17.80;;;6.60;;
55815;SDS011;41744;52.404;16.942;2022-12-13T16:23:44;18.70;;;7.00;;
55815;SDS011;41744;52.404;16.942;2022-12-13T16:26:11;26.17;;;9.10;;
55815;SDS011;41744;52.404;16.942;2022-12-13T16:28:38;22.73;;;8.60;;
55815;SDS011;41744;52.404;16.942;2022-12-13T16:31:13;20.63;;;7.70;;
55815;SDS011;41744;52.404;16.942;2022-12-13T16:33:40;17.97;;;7.50;;
55815;SDS011;41744;52.404;16.942;2022-12-13T16:36:07;21.47;;;7.43;;
55815;SDS011;41744;52.404;16.942;2022-12-13T16:38:34;19.97;;;7.10;;
55815;SDS011;41744;52.404;16.942;2022-12-13T16:41:00;22.20;;;8.27;;
55815;SDS011;41744;52.404;16.942;2022-12-13T16:43:26;20.50;;;7.10;;
55815;SDS011;41744;52.404;16.942;2022-12-13T16:45:53;14.40;;;5.60;;
55815;SDS011;41744;52.404;16.942;2022-12-13T16:48:20;13.53;;;5.23;;